sensor_id;sensor_type;location;lat;lon;timestamp;temperature;humidity
13229;DHT22;6680;53.220;10.402;2023-11-19T00:02:21;5.20;99.90
13229;DHT22;6680;53.220;10.402;2023-11-19T00:04:49;5.30;99.90
13229;DHT22;6680;53.220;10.402;2023-11-19T00:07:16;5.30;99.90
13229;DHT22;6680;53.220;10.402;2023-11-19T00:09:43;5.30;99.90
13229;DHT22;6680;53.220;10.402;2023-11-19T00:12:10;5.30;99.90
13229;DHT22;6680;53.220;10.402;2023-11-19T00:14:36;5.20;99.90
13229;DHT22;6680;53.220;10.402;2023-11-19T00:17:03;5.20;99.90
13229;DHT22;6680;53.220;10.402;2023-11-19T00:19:30;5.30;99.90
13229;DHT22;6680;53.220;10.402;2023-11-19T00:21:58;5.30;99.90
13229;DHT22;6680;53.220;10.402;2023-11-19T00:24:28;5.30;99.90
13229;DHT22;6680;53.220;10.402;2023-11-19T00:26:56;5.30;99.90
13229;DHT22;6680;53.220;10.402;2023-11-19T00:31:50;5.30;99.90
13229;DHT22;6680;53.220;10.402;2023-11-19T00:34:17;5.30;99.90
13229;DHT22;6680;53.220;10.402;2023-11-19T00:36:47;5.30;99.90
13229;DHT22;6680;53.220;10.402;2023-11-19T00:39:15;5.30;99.90
13229;DHT22;6680;53.220;10.402;2023-11-19T00:41:43;5.30;99.90
13229;DHT22;6680;53.220;10.402;2023-11-19T00:44:11;5.30;99.90
13229;DHT22;6680;53.220;10.402;2023-11-19T00:46:38;5.40;99.90
13229;DHT22;6680;53.220;10.402;2023-11-19T00:49:05;5.30;99.90
13229;DHT22;6680;53.220;10.402;2023-11-19T00:51:31;5.30;99.90
13229;DHT22;6680;53.220;10.402;2023-11-19T00:53:58;5.30;99.90
13229;DHT22;6680;53.220;10.402;2023-11-19T00:56:27;5.30;99.90
13229;DHT22;6680;53.220;10.402;2023-11-19T00:58:54;5.40;99.90
13229;DHT22;6680;53.220;10.402;2023-11-19T01:01:21;5.30;99.90
13229;DHT22;6680;53.220;10.402;2023-11-19T01:03:48;5.40;99.90
13229;DHT22;6680;53.220;10.402;2023-11-19T01:06:15;5.30;99.90
13229;DHT22;6680;53.220;10.402;2023-11-19T01:08:52;5.30;99.90
13229;DHT22;6680;53.220;10.402;2023-11-19T01:11:20;5.30;99.90
13229;DHT22;6680;53.220;10.402;2023-11-19T01:13:48;5.30;99.90
13229;DHT22;6680;53.220;10.402;2023-11-19T01:16:15;5.40;99.90
13229;DHT22;6680;53.220;10.402;2023-11-19T01:18:42;5.40;99.90
13229;DHT22;6680;53.220;10.402;2023-11-19T01:21:09;5.40;99.90
13229;DHT22;6680;53.220;10.402;2023-11-19T01:23:36;5.40;99.90
13229;DHT22;6680;53.220;10.402;2023-11-19T01:26:04;5.40;99.90
13229;DHT22;6680;53.220;10.402;2023-11-19T01:28:31;5.40;99.90
13229;DHT22;6680;53.220;10.402;2023-11-19T01:30:59;5.40;99.90
13229;DHT22;6680;53.220;10.402;2023-11-19T01:33:26;5.40;99.90
13229;DHT22;6680;53.220;10.402;2023-11-19T01:35:53;5.40;99.90
13229;DHT22;6680;53.220;10.402;2023-11-19T01:38:20;5.40;99.90
13229;DHT22;6680;53.220;10.402;2023-11-19T01:40:47;5.40;99.90
13229;DHT22;6680;53.220;10.402;2023-11-19T01:43:32;5.40;99.90
13229;DHT22;6680;53.220;10.402;2023-11-19T01:46:01;5.40;99.90
13229;DHT22;6680;53.220;10.402;2023-11-19T01:48:28;5.40;99.90
13229;DHT22;6680;53.220;10.402;2023-11-19T01:50:56;5.50;99.90
13229;DHT22;6680;53.220;10.402;2023-11-19T01:53:23;6.70;99.90
13229;DHT22;6680;53.220;10.402;2023-11-19T01:55:51;5.50;99.90
13229;DHT22;6680;53.220;10.402;2023-11-19T01:58:19;5.40;99.90
13229;DHT22;6680;53.220;10.402;2023-11-19T02:00:46;5.40;99.90
13229;DHT22;6680;53.220;10.402;2023-11-19T02:03:14;5.40;99.90
13229;DHT22;6680;53.220;10.402;2023-11-19T02:05:41;5.70;99.90
13229;DHT22;6680;53.220;10.402;2023-11-19T02:08:09;5.50;99.90
13229;DHT22;6680;53.220;10.402;2023-11-19T02:10:36;5.50;99.90
13229;DHT22;6680;53.220;10.402;2023-11-19T02:13:03;5.40;99.90
13229;DHT22;6680;53.220;10.402;2023-11-19T02:15:31;5.40;99.90
13229;DHT22;6680;53.220;10.402;2023-11-19T02:18:21;5.50;99.90
13229;DHT22;6680;53.220;10.402;2023-11-19T02:20:48;5.50;99.90
13229;DHT22;6680;53.220;10.402;2023-11-19T02:23:16;5.50;99.90
13229;DHT22;6680;53.220;10.402;2023-11-19T02:25:44;5.50;99.90
13229;DHT22;6680;53.220;10.402;2023-11-19T02:28:17;5.50;99.90
13229;DHT22;6680;53.220;10.402;2023-11-19T02:30:44;5.50;99.90
13229;DHT22;6680;53.220;10.402;2023-11-19T02:35:38;5.50;99.90
13229;DHT22;6680;53.220;10.402;2023-11-19T02:38:06;5.50;99.90
13229;DHT22;6680;53.220;10.402;2023-11-19T02:40:33;5.60;99.90
13229;DHT22;6680;53.220;10.402;2023-11-19T02:43:00;5.60;99.90
13229;DHT22;6680;53.220;10.402;2023-11-19T02:45:29;5.60;99.90
13229;DHT22;6680;53.220;10.402;2023-11-19T02:47:57;5.60;99.90
13229;DHT22;6680;53.220;10.402;2023-11-19T02:50:24;5.70;99.90
13229;DHT22;6680;53.220;10.402;2023-11-19T02:52:53;5.70;99.90
13229;DHT22;6680;53.220;10.402;2023-11-19T02:55:22;5.70;99.90
13229;DHT22;6680;53.220;10.402;2023-11-19T02:57:49;5.60;99.90
13229;DHT22;6680;53.220;10.402;2023-11-19T03:00:19;5.70;99.90
13229;DHT22;6680;53.220;10.402;2023-11-19T03:02:50;5.70;99.90
13229;DHT22;6680;53.220;10.402;2023-11-19T03:05:25;5.70;99.90
13229;DHT22;6680;53.220;10.402;2023-11-19T03:07:55;5.70;99.90
13229;DHT22;6680;53.220;10.402;2023-11-19T03:10:23;5.80;99.90
13229;DHT22;6680;53.220;10.402;2023-11-19T03:12:50;5.80;99.90
13229;DHT22;6680;53.220;10.402;2023-11-19T03:15:17;5.80;99.90
13229;DHT22;6680;53.220;10.402;2023-11-19T03:17:44;5.90;99.90
13229;DHT22;6680;53.220;10.402;2023-11-19T03:20:12;5.90;99.90
13229;DHT22;6680;53.220;10.402;2023-11-19T03:22:40;5.90;99.90
13229;DHT22;6680;53.220;10.402;2023-11-19T03:25:08;6.00;99.90
13229;DHT22;6680;53.220;10.402;2023-11-19T03:27:35;6.00;99.90
13229;DHT22;6680;53.220;10.402;2023-11-19T03:30:03;6.10;99.90
13229;DHT22;6680;53.220;10.402;2023-11-19T03:32:31;6.30;99.90
13229;DHT22;6680;53.220;10.402;2023-11-19T03:34:58;6.10;99.90
13229;DHT22;6680;53.220;10.402;2023-11-19T03:37:27;6.10;99.90
13229;DHT22;6680;53.220;10.402;2023-11-19T03:39:54;6.10;99.90
13229;DHT22;6680;53.220;10.402;2023-11-19T03:42:25;6.20;99.90
13229;DHT22;6680;53.220;10.402;2023-11-19T03:44:52;6.20;99.90
13229;DHT22;6680;53.220;10.402;2023-11-19T03:47:19;6.20;99.90
13229;DHT22;6680;53.220;10.402;2023-11-19T03:49:48;6.20;99.90
13229;DHT22;6680;53.220;10.402;2023-11-19T03:52:15;6.20;99.90
13229;DHT22;6680;53.220;10.402;2023-11-19T03:54:44;6.30;99.90
13229;DHT22;6680;53.220;10.402;2023-11-19T03:57:11;6.30;99.90
13229;DHT22;6680;53.220;10.402;2023-11-19T03:59:37;6.40;99.90
13229;DHT22;6680;53.220;10.402;2023-11-19T04:02:04;6.40;99.90
13229;DHT22;6680;53.220;10.402;2023-11-19T04:04:32;6.40;99.90
13229;DHT22;6680;53.220;10.402;2023-11-19T04:06:59;6.50;99.90
13229;DHT22;6680;53.220;10.402;2023-11-19T04:09:26;7.40;99.90
13229;DHT22;6680;53.220;10.402;2023-11-19T04:11:54;6.50;99.90
13229;DHT22;6680;53.220;10.402;2023-11-19T04:14:21;6.50;99.90
13229;DHT22;6680;53.220;10.402;2023-11-19T04:16:48;6.50;99.90
13229;DHT22;6680;53.220;10.402;2023-11-19T04:19:15;6.50;99.90
13229;DHT22;6680;53.220;10.402;2023-11-19T04:21:42;6.60;99.90
13229;DHT22;6680;53.220;10.402;2023-11-19T04:24:09;6.70;99.90
13229;DHT22;6680;53.220;10.402;2023-11-19T04:26:40;6.60;99.90
13229;DHT22;6680;53.220;10.402;2023-11-19T04:29:10;6.70;99.90
13229;DHT22;6680;53.220;10.402;2023-11-19T04:31:37;6.70;99.90
13229;DHT22;6680;53.220;10.402;2023-11-19T04:34:05;6.70;99.90
13229;DHT22;6680;53.220;10.402;2023-11-19T04:36:32;6.70;99.90
13229;DHT22;6680;53.220;10.402;2023-11-19T04:38:59;6.80;99.90
13229;DHT22;6680;53.220;10.402;2023-11-19T04:41:26;6.90;99.90
13229;DHT22;6680;53.220;10.402;2023-11-19T04:43:54;7.40;99.90
13229;DHT22;6680;53.220;10.402;2023-11-19T04:46:22;7.00;99.90
13229;DHT22;6680;53.220;10.402;2023-11-19T04:48:49;7.00;99.90
13229;DHT22;6680;53.220;10.402;2023-11-19T04:51:17;7.10;99.90
13229;DHT22;6680;53.220;10.402;2023-11-19T04:53:43;7.20;99.90
13229;DHT22;6680;53.220;10.402;2023-11-19T04:56:11;7.30;99.90
13229;DHT22;6680;53.220;10.402;2023-11-19T04:58:39;7.40;99.90
13229;DHT22;6680;53.220;10.402;2023-11-19T05:01:06;7.40;99.90
13229;DHT22;6680;53.220;10.402;2023-11-19T05:03:34;7.40;99.90
13229;DHT22;6680;53.220;10.402;2023-11-19T05:06:01;7.40;99.90
13229;DHT22;6680;53.220;10.402;2023-11-19T05:08:28;7.50;99.90
13229;DHT22;6680;53.220;10.402;2023-11-19T05:10:55;7.50;99.90
13229;DHT22;6680;53.220;10.402;2023-11-19T05:13:23;7.60;99.90
13229;DHT22;6680;53.220;10.402;2023-11-19T05:15:49;7.60;99.90
13229;DHT22;6680;53.220;10.402;2023-11-19T05:18:16;7.70;99.90
13229;DHT22;6680;53.220;10.402;2023-11-19T05:20:45;7.70;99.90
13229;DHT22;6680;53.220;10.402;2023-11-19T05:23:12;7.80;99.90
13229;DHT22;6680;53.220;10.402;2023-11-19T05:25:39;7.90;99.90
13229;DHT22;6680;53.220;10.402;2023-11-19T05:28:05;7.90;99.90
13229;DHT22;6680;53.220;10.402;2023-11-19T05:30:32;8.00;99.90
13229;DHT22;6680;53.220;10.402;2023-11-19T05:32:59;7.90;99.90
13229;DHT22;6680;53.220;10.402;2023-11-19T05:35:26;8.00;99.90
13229;DHT22;6680;53.220;10.402;2023-11-19T05:37:54;8.10;99.90
13229;DHT22;6680;53.220;10.402;2023-11-19T05:40:21;8.10;99.90
13229;DHT22;6680;53.220;10.402;2023-11-19T05:42:48;8.20;99.90
13229;DHT22;6680;53.220;10.402;2023-11-19T05:45:15;8.20;99.90
13229;DHT22;6680;53.220;10.402;2023-11-19T05:47:42;8.20;99.90
13229;DHT22;6680;53.220;10.402;2023-11-19T05:50:09;8.30;99.90
13229;DHT22;6680;53.220;10.402;2023-11-19T05:52:37;8.30;99.90
13229;DHT22;6680;53.220;10.402;2023-11-19T05:55:05;8.30;99.90
13229;DHT22;6680;53.220;10.402;2023-11-19T05:57:35;8.40;99.90
13229;DHT22;6680;53.220;10.402;2023-11-19T06:00:03;8.40;99.90
13229;DHT22;6680;53.220;10.402;2023-11-19T06:02:32;8.50;99.90
13229;DHT22;6680;53.220;10.402;2023-11-19T06:04:59;8.40;99.90
13229;DHT22;6680;53.220;10.402;2023-11-19T06:07:26;8.50;99.90
13229;DHT22;6680;53.220;10.402;2023-11-19T06:09:53;8.50;99.90
13229;DHT22;6680;53.220;10.402;2023-11-19T06:12:21;8.70;99.90
13229;DHT22;6680;53.220;10.402;2023-11-19T06:14:48;8.60;99.90
13229;DHT22;6680;53.220;10.402;2023-11-19T06:17:15;8.70;99.90
13229;DHT22;6680;53.220;10.402;2023-11-19T06:19:42;8.70;99.90
13229;DHT22;6680;53.220;10.402;2023-11-19T06:22:09;8.70;99.90
13229;DHT22;6680;53.220;10.402;2023-11-19T06:24:35;8.80;99.90
13229;DHT22;6680;53.220;10.402;2023-11-19T06:27:03;8.80;99.90
13229;DHT22;6680;53.220;10.402;2023-11-19T06:29:31;8.80;99.90
13229;DHT22;6680;53.220;10.402;2023-11-19T06:31:58;8.90;99.90
13229;DHT22;6680;53.220;10.402;2023-11-19T06:34:25;9.00;99.90
13229;DHT22;6680;53.220;10.402;2023-11-19T06:36:52;9.00;99.90
13229;DHT22;6680;53.220;10.402;2023-11-19T06:39:19;9.00;99.90
13229;DHT22;6680;53.220;10.402;2023-11-19T06:41:46;9.10;99.90
13229;DHT22;6680;53.220;10.402;2023-11-19T06:44:13;9.10;99.90
13229;DHT22;6680;53.220;10.402;2023-11-19T06:46:41;9.10;99.90
13229;DHT22;6680;53.220;10.402;2023-11-19T06:49:08;9.10;99.90
13229;DHT22;6680;53.220;10.402;2023-11-19T06:51:34;9.20;99.90
13229;DHT22;6680;53.220;10.402;2023-11-19T06:54:01;9.30;99.90
13229;DHT22;6680;53.220;10.402;2023-11-19T06:56:28;9.30;99.90
13229;DHT22;6680;53.220;10.402;2023-11-19T06:58:55;9.40;99.90
13229;DHT22;6680;53.220;10.402;2023-11-19T07:01:22;9.60;99.90
13229;DHT22;6680;53.220;10.402;2023-11-19T07:03:50;9.70;99.90
13229;DHT22;6680;53.220;10.402;2023-11-19T07:06:17;9.80;99.90
13229;DHT22;6680;53.220;10.402;2023-11-19T07:08:44;9.80;99.90
13229;DHT22;6680;53.220;10.402;2023-11-19T07:11:11;9.90;99.90
13229;DHT22;6680;53.220;10.402;2023-11-19T07:13:39;10.00;99.90
13229;DHT22;6680;53.220;10.402;2023-11-19T07:16:07;10.10;99.90
13229;DHT22;6680;53.220;10.402;2023-11-19T07:18:36;10.20;99.90
13229;DHT22;6680;53.220;10.402;2023-11-19T07:21:06;10.20;99.90
13229;DHT22;6680;53.220;10.402;2023-11-19T07:23:35;10.20;99.90
13229;DHT22;6680;53.220;10.402;2023-11-19T07:26:05;10.30;99.90
13229;DHT22;6680;53.220;10.402;2023-11-19T07:28:33;10.40;99.90
13229;DHT22;6680;53.220;10.402;2023-11-19T07:31:00;10.40;99.90
13229;DHT22;6680;53.220;10.402;2023-11-19T07:33:27;10.40;99.90
13229;DHT22;6680;53.220;10.402;2023-11-19T07:35:55;10.10;99.90
13229;DHT22;6680;53.220;10.402;2023-11-19T07:38:24;10.50;99.90
13229;DHT22;6680;53.220;10.402;2023-11-19T07:40:50;10.50;99.90
13229;DHT22;6680;53.220;10.402;2023-11-19T07:43:17;10.60;99.90
13229;DHT22;6680;53.220;10.402;2023-11-19T07:45:44;10.60;99.90
13229;DHT22;6680;53.220;10.402;2023-11-19T07:48:11;10.60;99.90
13229;DHT22;6680;53.220;10.402;2023-11-19T07:50:39;10.70;99.90
13229;DHT22;6680;53.220;10.402;2023-11-19T07:53:06;10.70;99.90
13229;DHT22;6680;53.220;10.402;2023-11-19T07:55:35;10.70;99.90
13229;DHT22;6680;53.220;10.402;2023-11-19T07:58:02;10.80;99.90
13229;DHT22;6680;53.220;10.402;2023-11-19T08:00:29;10.80;99.90
13229;DHT22;6680;53.220;10.402;2023-11-19T08:02:56;10.80;99.90
13229;DHT22;6680;53.220;10.402;2023-11-19T08:05:23;10.90;99.90
13229;DHT22;6680;53.220;10.402;2023-11-19T08:07:50;11.00;99.90
13229;DHT22;6680;53.220;10.402;2023-11-19T08:10:17;11.00;99.90
13229;DHT22;6680;53.220;10.402;2023-11-19T08:12:45;11.00;99.90
13229;DHT22;6680;53.220;10.402;2023-11-19T08:15:12;11.00;99.90
13229;DHT22;6680;53.220;10.402;2023-11-19T08:17:39;11.10;99.90
13229;DHT22;6680;53.220;10.402;2023-11-19T08:20:07;11.10;99.90
13229;DHT22;6680;53.220;10.402;2023-11-19T08:22:35;11.20;99.90
13229;DHT22;6680;53.220;10.402;2023-11-19T08:25:03;11.30;99.90
13229;DHT22;6680;53.220;10.402;2023-11-19T08:27:30;11.40;99.90
13229;DHT22;6680;53.220;10.402;2023-11-19T08:29:58;11.50;99.90
13229;DHT22;6680;53.220;10.402;2023-11-19T08:32:25;11.40;99.90
13229;DHT22;6680;53.220;10.402;2023-11-19T08:34:52;11.50;99.90
13229;DHT22;6680;53.220;10.402;2023-11-19T08:37:19;11.50;99.90
13229;DHT22;6680;53.220;10.402;2023-11-19T08:39:47;11.50;99.90
13229;DHT22;6680;53.220;10.402;2023-11-19T08:42:14;11.50;99.90
13229;DHT22;6680;53.220;10.402;2023-11-19T08:44:41;11.50;99.90
13229;DHT22;6680;53.220;10.402;2023-11-19T08:47:11;11.50;99.90
13229;DHT22;6680;53.220;10.402;2023-11-19T08:49:38;11.50;99.90
13229;DHT22;6680;53.220;10.402;2023-11-19T08:52:05;11.50;99.90
13229;DHT22;6680;53.220;10.402;2023-11-19T08:54:35;11.40;99.90
13229;DHT22;6680;53.220;10.402;2023-11-19T08:57:02;11.40;99.90
13229;DHT22;6680;53.220;10.402;2023-11-19T08:59:29;11.40;99.90
13229;DHT22;6680;53.220;10.402;2023-11-19T09:01:56;11.30;99.90
13229;DHT22;6680;53.220;10.402;2023-11-19T09:04:24;11.40;99.90
13229;DHT22;6680;53.220;10.402;2023-11-19T09:06:51;11.30;99.90
13229;DHT22;6680;53.220;10.402;2023-11-19T09:09:18;11.40;99.90
13229;DHT22;6680;53.220;10.402;2023-11-19T09:11:44;11.30;99.90
13229;DHT22;6680;53.220;10.402;2023-11-19T09:14:11;11.30;99.90
13229;DHT22;6680;53.220;10.402;2023-11-19T09:16:38;11.30;99.90
13229;DHT22;6680;53.220;10.402;2023-11-19T09:19:05;11.30;99.90
13229;DHT22;6680;53.220;10.402;2023-11-19T09:21:33;11.30;99.90
13229;DHT22;6680;53.220;10.402;2023-11-19T09:24:04;11.40;99.90
13229;DHT22;6680;53.220;10.402;2023-11-19T09:26:32;11.30;99.90
13229;DHT22;6680;53.220;10.402;2023-11-19T09:28:59;11.30;99.90
13229;DHT22;6680;53.220;10.402;2023-11-19T09:31:26;11.30;99.90
13229;DHT22;6680;53.220;10.402;2023-11-19T09:33:53;11.00;99.90
13229;DHT22;6680;53.220;10.402;2023-11-19T09:36:20;11.30;99.90
13229;DHT22;6680;53.220;10.402;2023-11-19T09:38:48;11.30;99.90
13229;DHT22;6680;53.220;10.402;2023-11-19T09:41:16;11.40;99.90
13229;DHT22;6680;53.220;10.402;2023-11-19T09:43:45;11.60;99.90
13229;DHT22;6680;53.220;10.402;2023-11-19T09:46:13;11.60;99.90
13229;DHT22;6680;53.220;10.402;2023-11-19T09:48:42;11.70;99.90
13229;DHT22;6680;53.220;10.402;2023-11-19T09:51:10;11.70;99.90
13229;DHT22;6680;53.220;10.402;2023-11-19T09:53:37;11.70;99.90
13229;DHT22;6680;53.220;10.402;2023-11-19T09:56:07;12.00;99.90
13229;DHT22;6680;53.220;10.402;2023-11-19T09:58:34;11.70;99.90
13229;DHT22;6680;53.220;10.402;2023-11-19T10:01:01;11.70;99.90
13229;DHT22;6680;53.220;10.402;2023-11-19T10:03:33;11.70;99.90
13229;DHT22;6680;53.220;10.402;2023-11-19T10:06:03;11.70;99.90
13229;DHT22;6680;53.220;10.402;2023-11-19T10:08:31;11.70;99.90
13229;DHT22;6680;53.220;10.402;2023-11-19T10:10:58;11.80;99.90
13229;DHT22;6680;53.220;10.402;2023-11-19T10:13:28;11.90;99.90
13229;DHT22;6680;53.220;10.402;2023-11-19T10:15:56;11.90;99.90
13229;DHT22;6680;53.220;10.402;2023-11-19T10:18:25;11.80;99.90
13229;DHT22;6680;53.220;10.402;2023-11-19T10:20:52;11.80;99.90
13229;DHT22;6680;53.220;10.402;2023-11-19T10:23:21;11.70;99.90
13229;DHT22;6680;53.220;10.402;2023-11-19T10:25:48;11.80;99.90
13229;DHT22;6680;53.220;10.402;2023-11-19T10:28:15;11.80;99.90
13229;DHT22;6680;53.220;10.402;2023-11-19T10:30:44;11.80;99.90
13229;DHT22;6680;53.220;10.402;2023-11-19T10:33:12;11.90;99.90
13229;DHT22;6680;53.220;10.402;2023-11-19T10:35:51;11.90;99.90
13229;DHT22;6680;53.220;10.402;2023-11-19T10:38:19;11.90;99.90
13229;DHT22;6680;53.220;10.402;2023-11-19T10:40:46;12.00;99.90
13229;DHT22;6680;53.220;10.402;2023-11-19T10:43:13;12.00;99.90
13229;DHT22;6680;53.220;10.402;2023-11-19T10:45:40;12.00;99.90
13229;DHT22;6680;53.220;10.402;2023-11-19T10:48:08;12.00;99.90
13229;DHT22;6680;53.220;10.402;2023-11-19T10:50:36;12.10;99.90
13229;DHT22;6680;53.220;10.402;2023-11-19T10:53:04;12.10;99.90
13229;DHT22;6680;53.220;10.402;2023-11-19T10:55:31;12.20;99.90
13229;DHT22;6680;53.220;10.402;2023-11-19T10:58:01;12.20;99.90
13229;DHT22;6680;53.220;10.402;2023-11-19T11:00:29;12.30;99.90
13229;DHT22;6680;53.220;10.402;2023-11-19T11:03:01;12.20;99.90
13229;DHT22;6680;53.220;10.402;2023-11-19T11:05:32;12.20;99.90
13229;DHT22;6680;53.220;10.402;2023-11-19T11:08:01;12.20;99.90
13229;DHT22;6680;53.220;10.402;2023-11-19T11:10:30;12.20;99.90
13229;DHT22;6680;53.220;10.402;2023-11-19T11:13:03;12.20;99.90
13229;DHT22;6680;53.220;10.402;2023-11-19T11:15:30;12.10;99.90
13229;DHT22;6680;53.220;10.402;2023-11-19T11:18:00;12.10;99.90
13229;DHT22;6680;53.220;10.402;2023-11-19T11:20:30;12.10;99.90
13229;DHT22;6680;53.220;10.402;2023-11-19T11:23:22;12.10;99.90
13229;DHT22;6680;53.220;10.402;2023-11-19T11:26:00;12.00;99.90
13229;DHT22;6680;53.220;10.402;2023-11-19T11:28:37;12.00;99.90
13229;DHT22;6680;53.220;10.402;2023-11-19T11:31:23;12.00;99.90
13229;DHT22;6680;53.220;10.402;2023-11-19T11:34:10;12.20;99.90
13229;DHT22;6680;53.220;10.402;2023-11-19T11:36:49;12.40;99.90
13229;DHT22;6680;53.220;10.402;2023-11-19T11:39:22;12.60;99.90
13229;DHT22;6680;53.220;10.402;2023-11-19T11:42:30;12.60;99.90
13229;DHT22;6680;53.220;10.402;2023-11-19T11:45:00;12.60;99.90
13229;DHT22;6680;53.220;10.402;2023-11-19T11:50:29;12.50;99.90
13229;DHT22;6680;53.220;10.402;2023-11-19T11:53:17;12.40;99.90
13229;DHT22;6680;53.220;10.402;2023-11-19T11:55:58;12.20;99.90
13229;DHT22;6680;53.220;10.402;2023-11-19T11:58:31;12.20;99.90
13229;DHT22;6680;53.220;10.402;2023-11-19T12:00:59;12.10;99.90
13229;DHT22;6680;53.220;10.402;2023-11-19T12:03:28;12.10;99.90
13229;DHT22;6680;53.220;10.402;2023-11-19T12:05:55;12.00;99.90
13229;DHT22;6680;53.220;10.402;2023-11-19T12:08:27;12.00;99.90
13229;DHT22;6680;53.220;10.402;2023-11-19T12:10:56;12.10;99.90
13229;DHT22;6680;53.220;10.402;2023-11-19T12:13:28;12.10;99.90
13229;DHT22;6680;53.220;10.402;2023-11-19T12:16:08;12.20;99.90
13229;DHT22;6680;53.220;10.402;2023-11-19T12:18:35;12.30;99.90
13229;DHT22;6680;53.220;10.402;2023-11-19T12:21:02;12.40;99.90
13229;DHT22;6680;53.220;10.402;2023-11-19T12:23:32;12.40;99.90
13229;DHT22;6680;53.220;10.402;2023-11-19T12:28:26;12.40;99.90
13229;DHT22;6680;53.220;10.402;2023-11-19T12:30:54;12.50;99.90
13229;DHT22;6680;53.220;10.402;2023-11-19T12:33:35;12.50;99.90
13229;DHT22;6680;53.220;10.402;2023-11-19T12:36:04;12.60;99.90
13229;DHT22;6680;53.220;10.402;2023-11-19T12:38:33;12.60;99.90
13229;DHT22;6680;53.220;10.402;2023-11-19T12:41:03;12.50;99.90
13229;DHT22;6680;53.220;10.402;2023-11-19T12:43:30;12.40;99.90
13229;DHT22;6680;53.220;10.402;2023-11-19T12:45:57;12.30;99.90
13229;DHT22;6680;53.220;10.402;2023-11-19T12:48:24;12.30;99.90
13229;DHT22;6680;53.220;10.402;2023-11-19T12:50:51;12.20;99.90
13229;DHT22;6680;53.220;10.402;2023-11-19T12:53:18;12.20;99.90
13229;DHT22;6680;53.220;10.402;2023-11-19T12:55:46;12.20;99.90
13229;DHT22;6680;53.220;10.402;2023-11-19T12:58:28;12.20;99.90
13229;DHT22;6680;53.220;10.402;2023-11-19T13:00:59;12.20;99.90
13229;DHT22;6680;53.220;10.402;2023-11-19T13:03:30;12.20;99.90
13229;DHT22;6680;53.220;10.402;2023-11-19T13:06:05;12.30;99.90
13229;DHT22;6680;53.220;10.402;2023-11-19T13:08:36;12.30;99.90
13229;DHT22;6680;53.220;10.402;2023-11-19T13:11:06;12.20;99.90
13229;DHT22;6680;53.220;10.402;2023-11-19T13:13:55;12.30;99.90
13229;DHT22;6680;53.220;10.402;2023-11-19T13:16:22;12.20;99.90
13229;DHT22;6680;53.220;10.402;2023-11-19T13:18:49;12.20;99.90
13229;DHT22;6680;53.220;10.402;2023-11-19T13:21:17;12.00;99.90
13229;DHT22;6680;53.220;10.402;2023-11-19T13:23:44;12.80;99.90
13229;DHT22;6680;53.220;10.402;2023-11-19T13:26:12;12.10;99.90
13229;DHT22;6680;53.220;10.402;2023-11-19T13:28:39;12.10;99.90
13229;DHT22;6680;53.220;10.402;2023-11-19T13:31:06;12.00;99.90
13229;DHT22;6680;53.220;10.402;2023-11-19T13:33:33;12.10;99.90
13229;DHT22;6680;53.220;10.402;2023-11-19T13:35:59;11.70;99.90
13229;DHT22;6680;53.220;10.402;2023-11-19T13:38:31;11.90;99.90
13229;DHT22;6680;53.220;10.402;2023-11-19T13:40:59;11.90;99.90
13229;DHT22;6680;53.220;10.402;2023-11-19T13:43:27;11.80;99.90
13229;DHT22;6680;53.220;10.402;2023-11-19T13:45:54;11.80;99.90
13229;DHT22;6680;53.220;10.402;2023-11-19T13:48:21;11.80;99.90
13229;DHT22;6680;53.220;10.402;2023-11-19T13:50:48;11.90;99.90
13229;DHT22;6680;53.220;10.402;2023-11-19T13:53:15;12.00;99.90
13229;DHT22;6680;53.220;10.402;2023-11-19T13:55:42;11.90;99.90
13229;DHT22;6680;53.220;10.402;2023-11-19T13:58:08;11.90;99.90
13229;DHT22;6680;53.220;10.402;2023-11-19T14:00:37;12.50;99.90
13229;DHT22;6680;53.220;10.402;2023-11-19T14:03:04;11.90;99.90
13229;DHT22;6680;53.220;10.402;2023-11-19T14:05:31;11.80;99.90
13229;DHT22;6680;53.220;10.402;2023-11-19T14:07:58;11.80;99.90
13229;DHT22;6680;53.220;10.402;2023-11-19T14:10:26;11.70;99.90
13229;DHT22;6680;53.220;10.402;2023-11-19T14:12:54;11.60;99.90
13229;DHT22;6680;53.220;10.402;2023-11-19T14:15:20;11.60;99.90
13229;DHT22;6680;53.220;10.402;2023-11-19T14:17:49;11.60;99.90
13229;DHT22;6680;53.220;10.402;2023-11-19T14:20:15;11.60;99.90
13229;DHT22;6680;53.220;10.402;2023-11-19T14:22:44;11.50;99.90
13229;DHT22;6680;53.220;10.402;2023-11-19T14:25:13;11.40;99.90
13229;DHT22;6680;53.220;10.402;2023-11-19T14:27:41;11.00;99.90
13229;DHT22;6680;53.220;10.402;2023-11-19T14:30:09;11.50;99.90
13229;DHT22;6680;53.220;10.402;2023-11-19T14:32:38;11.30;99.90
13229;DHT22;6680;53.220;10.402;2023-11-19T14:35:07;11.20;99.90
13229;DHT22;6680;53.220;10.402;2023-11-19T14:37:34;11.30;99.90
13229;DHT22;6680;53.220;10.402;2023-11-19T14:40:01;11.30;99.90
13229;DHT22;6680;53.220;10.402;2023-11-19T14:42:29;11.40;99.90
13229;DHT22;6680;53.220;10.402;2023-11-19T14:44:56;11.30;99.90
13229;DHT22;6680;53.220;10.402;2023-11-19T14:47:24;11.30;99.90
13229;DHT22;6680;53.220;10.402;2023-11-19T14:49:51;11.30;99.90
13229;DHT22;6680;53.220;10.402;2023-11-19T14:52:19;11.20;99.90
13229;DHT22;6680;53.220;10.402;2023-11-19T14:54:46;11.20;99.90
13229;DHT22;6680;53.220;10.402;2023-11-19T14:57:13;11.20;99.90
13229;DHT22;6680;53.220;10.402;2023-11-19T14:59:40;11.10;99.90
13229;DHT22;6680;53.220;10.402;2023-11-19T15:02:07;11.10;99.90
13229;DHT22;6680;53.220;10.402;2023-11-19T15:04:34;11.00;99.90
13229;DHT22;6680;53.220;10.402;2023-11-19T15:07:02;11.00;99.90
13229;DHT22;6680;53.220;10.402;2023-11-19T15:09:31;11.00;99.90
13229;DHT22;6680;53.220;10.402;2023-11-19T15:11:58;11.10;99.90
13229;DHT22;6680;53.220;10.402;2023-11-19T15:14:25;10.80;99.90
13229;DHT22;6680;53.220;10.402;2023-11-19T15:16:52;10.80;99.90
13229;DHT22;6680;53.220;10.402;2023-11-19T15:19:19;10.70;99.90
13229;DHT22;6680;53.220;10.402;2023-11-19T15:21:46;10.60;99.90
13229;DHT22;6680;53.220;10.402;2023-11-19T15:24:13;10.60;99.90
13229;DHT22;6680;53.220;10.402;2023-11-19T15:26:41;10.50;99.90
13229;DHT22;6680;53.220;10.402;2023-11-19T15:29:08;10.50;99.90
13229;DHT22;6680;53.220;10.402;2023-11-19T15:31:35;10.40;99.90
13229;DHT22;6680;53.220;10.402;2023-11-19T15:34:02;10.50;99.90
13229;DHT22;6680;53.220;10.402;2023-11-19T15:36:29;10.50;99.90
13229;DHT22;6680;53.220;10.402;2023-11-19T15:38:57;10.40;99.90
13229;DHT22;6680;53.220;10.402;2023-11-19T15:41:24;10.40;99.90
13229;DHT22;6680;53.220;10.402;2023-11-19T15:43:54;10.40;99.90
13229;DHT22;6680;53.220;10.402;2023-11-19T15:46:21;10.50;99.90
13229;DHT22;6680;53.220;10.402;2023-11-19T15:48:48;10.30;99.90
13229;DHT22;6680;53.220;10.402;2023-11-19T15:51:15;10.30;99.90
13229;DHT22;6680;53.220;10.402;2023-11-19T15:53:43;10.10;99.90
13229;DHT22;6680;53.220;10.402;2023-11-19T15:56:09;9.90;99.90